Time;durP1;ratioP1;P1;durP2;ratioP2;P2;SDS_P1;SDS_P2;PMS_P1;PMS_P2;Temp;Humidity;BMP_temperature;BMP_pressure;BME280_temperature;BME280_humidity;BME280_pressure;Samples;Min_cycle;Max_cycle;Signal;HPM_P1;HPM_P2
2022/09/29 00:02:47;;;;;;;0.40;0.40;;;9.00;99.90;;;;;;5053764;28;20627;-66
2022/09/29 00:05:36;;;;;;;0.40;0.40;;;9.00;99.90;;;;;;5053035;28;20435;-67
2022/09/29 00:08:26;;;;;;;0.40;0.40;;;9.10;99.90;;;;;;5054097;28;20970;-67
2022/09/29 00:11:18;;;;;;;0.40;0.40;;;9.10;99.90;;;;;;5052733;28;20491;-67
2022/09/29 00:14:06;;;;;;;0.40;0.40;;;9.10;99.90;;;;;;5052580;28;20424;-67
2022/09/29 00:16:56;;;;;;;0.40;0.40;;;9.10;99.90;;;;;;5052068;28;20424;-67
2022/09/29 00:19:44;;;;;;;0.40;0.40;;;9.00;99.90;;;;;;5052870;28;20420;-66
2022/09/29 00:22:32;;;;;;;0.40;0.40;;;9.00;99.90;;;;;;5053931;28;20987;-67
2022/09/29 00:25:20;;;;;;;0.40;0.40;;;9.00;99.90;;;;;;5053802;28;20429;-67
2022/09/29 00:28:08;;;;;;;0.40;0.40;;;9.00;99.90;;;;;;5053744;28;20460;-67
2022/09/29 00:30:59;;;;;;;0.47;0.47;;;8.90;99.90;;;;;;5052704;28;20547;-66
2022/09/29 00:33:49;;;;;;;0.40;0.40;;;8.90;99.90;;;;;;5053255;28;20420;-67
2022/09/29 00:36:37;;;;;;;0.40;0.40;;;10.10;99.90;;;;;;5054124;28;20424;-66
2022/09/29 00:39:26;;;;;;;0.40;0.40;;;8.60;99.90;;;;;;5054076;28;20432;-66
2022/09/29 00:42:18;;;;;;;0.40;0.40;;;8.50;99.90;;;;;;5052963;28;20863;-66
2022/09/29 00:45:22;;;;;;;0.40;0.40;;;8.40;99.90;;;;;;5054422;28;20515;-66
2022/09/29 00:48:16;;;;;;;4.13;1.80;;;8.30;99.90;;;;;;5065292;28;20434;-68
2022/09/29 00:51:06;;;;;;;0.40;0.40;;;8.20;99.90;;;;;;5060293;28;20444;-67
2022/09/29 00:53:55;;;;;;;0.40;0.40;;;8.10;99.90;;;;;;5063636;28;20447;-67
2022/09/29 00:56:45;;;;;;;0.40;0.40;;;8.00;99.90;;;;;;5067005;28;20436;-67
2022/09/29 00:59:39;;;;;;;0.40;0.40;;;7.90;99.90;;;;;;5069265;28;20458;-67
2022/09/29 01:02:31;;;;;;;0.40;0.40;;;7.90;99.90;;;;;;5069187;28;20510;-66
2022/09/29 01:05:23;;;;;;;0.40;0.40;;;7.90;99.90;;;;;;5065938;28;20500;-67
2022/09/29 01:08:16;;;;;;;0.40;0.40;;;7.80;99.90;;;;;;5065901;28;20432;-66
2022/09/29 01:11:05;;;;;;;0.40;0.40;;;7.80;99.90;;;;;;5069704;28;20444;-67
2022/09/29 01:13:56;;;;;;;0.40;0.40;;;7.80;99.90;;;;;;5072441;28;20424;-67
2022/09/29 01:16:44;;;;;;;0.40;0.40;;;7.80;99.90;;;;;;5071229;28;20507;-67
2022/09/29 01:19:47;;;;;;;0.50;0.50;;;7.70;99.90;;;;;;5070177;28;20461;-66
2022/09/29 01:23:17;;;;;;;0.93;0.83;;;7.70;99.90;;;;;;5069422;28;20454;-67
2022/09/29 01:26:53;;;;;;;0.40;0.40;;;7.70;99.90;;;;;;5069732;28;20493;-66
2022/09/29 01:30:06;;;;;;;0.40;0.40;;;7.80;99.90;;;;;;5035168;28;20515;-66
2022/09/29 01:33:09;;;;;;;0.40;0.40;;;7.80;99.90;;;;;;5070153;28;20439;-67
2022/09/29 01:36:06;;;;;;;0.40;0.40;;;7.90;99.90;;;;;;5070737;28;20428;-67
2022/09/29 01:39:03;;;;;;;0.40;0.40;;;7.90;99.90;;;;;;5071735;28;20454;-67
2022/09/29 01:41:55;;;;;;;0.50;0.50;;;8.00;99.90;;;;;;5066708;28;20502;-67
2022/09/29 01:44:48;;;;;;;0.40;0.40;;;8.00;99.90;;;;;;5060883;28;20428;-67
2022/09/29 01:47:41;;;;;;;0.40;0.40;;;7.90;99.90;;;;;;5061064;28;20446;-66
2022/09/29 01:50:34;;;;;;;0.40;0.40;;;7.90;99.90;;;;;;5067652;28;20490;-66
2022/09/29 01:53:28;;;;;;;0.50;0.50;;;8.00;99.90;;;;;;5071958;28;20479;-67
2022/09/29 01:56:25;;;;;;;0.40;0.40;;;7.90;99.90;;;;;;5057587;28;20433;-66
2022/09/29 01:59:20;;;;;;;0.40;0.40;;;8.00;99.90;;;;;;5054450;28;20432;-67
2022/09/29 02:02:11;;;;;;;0.40;0.40;;;7.90;99.90;;;;;;5056319;28;20448;-66
2022/09/29 02:05:02;;;;;;;0.40;0.40;;;7.90;99.90;;;;;;5056326;28;20932;-66
2022/09/29 02:07:55;;;;;;;0.40;0.40;;;7.90;99.90;;;;;;5055601;28;20420;-67
2022/09/29 02:10:50;;;;;;;0.40;0.40;;;7.90;99.90;;;;;;5055446;28;20501;-67
2022/09/29 02:13:41;;;;;;;1.03;1.03;;;7.90;99.90;;;;;;5055635;28;20960;-66
2022/09/29 02:16:30;;;;;;;1.47;1.47;;;7.90;99.90;;;;;;5055528;28;20456;-66
2022/09/29 02:19:22;;;;;;;0.40;0.40;;;8.00;99.90;;;;;;5055847;28;20452;-67
2022/09/29 02:22:10;;;;;;;0.40;0.40;;;8.00;99.90;;;;;;5055579;28;20456;-67
2022/09/29 02:25:01;;;;;;;0.40;0.40;;;8.00;99.90;;;;;;5055714;28;20462;-66
2022/09/29 02:27:50;;;;;;;0.40;0.40;;;8.10;99.90;;;;;;5054747;28;20486;-67
2022/09/29 02:30:38;;;;;;;0.50;0.50;;;8.10;99.90;;;;;;5054749;28;20488;-66
2022/09/29 02:33:26;;;;;;;0.40;0.40;;;8.00;99.90;;;;;;5054716;28;20478;-67
2022/09/29 02:36:23;;;;;;;0.40;0.40;;;8.10;99.90;;;;;;5055087;28;20574;-66
2022/09/29 02:39:19;;;;;;;0.40;0.40;;;8.10;99.90;;;;;;5054858;28;20933;-65
2022/09/29 02:42:18;;;;;;;0.40;0.40;;;8.20;99.90;;;;;;5054533;28;20424;-67
2022/09/29 02:45:21;;;;;;;0.40;0.40;;;8.20;99.90;;;;;;5055038;28;20452;-67
2022/09/29 02:48:21;;;;;;;0.40;0.40;;;8.30;99.90;;;;;;5053902;28;20446;-67
2022/09/29 02:51:14;;;;;;;0.40;0.40;;;8.30;99.90;;;;;;5055508;28;20883;-67
2022/09/29 02:54:19;;;;;;;0.40;0.40;;;8.40;99.90;;;;;;5055940;28;20951;-66
2022/09/29 02:57:17;;;;;;;0.40;0.40;;;8.30;99.90;;;;;;5054256;28;20448;-66
2022/09/29 03:00:09;;;;;;;0.50;0.50;;;8.30;99.90;;;;;;5055745;28;20519;-66
2022/09/29 03:02:58;;;;;;;0.40;0.40;;;8.40;99.90;;;;;;5054626;28;20432;-66
2022/09/29 03:05:47;;;;;;;0.40;0.40;;;8.40;99.90;;;;;;5054638;28;20515;-67
2022/09/29 03:08:35;;;;;;;2.87;1.03;;;8.40;99.90;;;;;;5054267;28;20424;-66
2022/09/29 03:11:23;;;;;;;0.40;0.40;;;8.40;99.90;;;;;;5053360;28;20436;-67
2022/09/29 03:14:12;;;;;;;0.40;0.40;;;8.40;99.90;;;;;;5054246;28;20424;-67
2022/09/29 03:17:00;;;;;;;0.40;0.40;;;8.40;99.90;;;;;;5062712;28;20911;-67
2022/09/29 03:19:48;;;;;;;0.50;0.50;;;8.40;99.90;;;;;;5073677;28;20458;-67
2022/09/29 03:22:37;;;;;;;0.50;0.50;;;8.10;99.90;;;;;;5074581;28;20420;-67
2022/09/29 03:25:25;;;;;;;0.40;0.40;;;8.40;99.90;;;;;;5073269;28;20515;-67
2022/09/29 03:28:15;;;;;;;0.40;0.40;;;8.40;99.90;;;;;;5073915;28;20420;-67
2022/09/29 03:31:09;;;;;;;0.40;0.40;;;8.50;99.90;;;;;;5073592;28;20490;-67
2022/09/29 03:33:57;;;;;;;0.40;0.40;;;8.50;99.90;;;;;;5054230;28;20417;-67
2022/09/29 03:36:45;;;;;;;0.40;0.40;;;8.40;99.90;;;;;;5056176;28;20456;-67
2022/09/29 03:39:33;;;;;;;0.40;0.40;;;7.10;99.90;;;;;;5067458;28;20428;-66
2022/09/29 03:42:23;;;;;;;0.40;0.40;;;8.50;99.90;;;;;;5067483;28;20454;-67
2022/09/29 03:45:11;;;;;;;0.40;0.40;;;8.50;99.90;;;;;;5072021;28;20470;-65
2022/09/29 03:48:01;;;;;;;0.60;0.60;;;8.50;99.90;;;;;;5054212;28;20521;-66
2022/09/29 03:50:50;;;;;;;0.40;0.40;;;8.50;99.90;;;;;;5053234;28;20484;-67
2022/09/29 03:53:38;;;;;;;0.40;0.40;;;8.50;99.90;;;;;;5054325;28;20420;-66
2022/09/29 03:56:26;;;;;;;1.00;1.00;;;8.50;99.90;;;;;;5054171;28;20432;-66
2022/09/29 03:59:14;;;;;;;0.40;0.40;;;8.50;99.90;;;;;;5053537;28;20471;-66
2022/09/29 04:02:03;;;;;;;0.40;0.40;;;8.50;99.90;;;;;;5052978;28;20955;-66
2022/09/29 04:04:52;;;;;;;0.40;0.40;;;8.60;99.90;;;;;;5053850;28;20474;-66
2022/09/29 04:07:40;;;;;;;0.40;0.40;;;8.60;99.90;;;;;;5053124;28;20439;-66
2022/09/29 04:10:28;;;;;;;0.40;0.40;;;8.60;99.90;;;;;;5053707;28;20532;-67
2022/09/29 04:13:17;;;;;;;0.40;0.40;;;8.60;99.90;;;;;;5052771;28;20456;-66
2022/09/29 04:16:07;;;;;;;0.40;0.40;;;8.60;99.90;;;;;;5054149;28;20432;-66
2022/09/29 04:18:55;;;;;;;0.40;0.40;;;8.50;99.90;;;;;;5053884;28;20427;-67
2022/09/29 04:21:45;;;;;;;0.40;0.40;;;8.60;99.90;;;;;;5053889;28;20537;-67
2022/09/29 04:24:33;;;;;;;0.40;0.40;;;8.60;99.90;;;;;;5054244;28;21011;-66
2022/09/29 04:27:22;;;;;;;0.40;0.40;;;8.60;99.90;;;;;;5053587;28;20440;-66
2022/09/29 04:30:11;;;;;;;0.40;0.40;;;8.70;99.90;;;;;;5052968;28;20502;-66
2022/09/29 04:32:59;;;;;;;0.40;0.40;;;8.60;99.90;;;;;;5053252;28;20502;-67
2022/09/29 04:35:47;;;;;;;0.40;0.40;;;8.70;99.90;;;;;;5053989;28;20498;-66
2022/09/29 04:38:36;;;;;;;0.40;0.40;;;8.60;99.90;;;;;;5053474;28;20416;-66
2022/09/29 04:41:24;;;;;;;0.60;0.60;;;8.60;99.90;;;;;;5053021;28;20533;-67
2022/09/29 04:44:12;;;;;;;3.83;2.43;;;8.60;99.90;;;;;;5053509;28;20559;-66
2022/09/29 04:47:01;;;;;;;0.40;0.40;;;8.60;99.90;;;;;;5057501;28;20456;-66
2022/09/29 04:49:49;;;;;;;0.40;0.40;;;8.50;99.90;;;;;;5057215;28;20476;-66
2022/09/29 04:52:37;;;;;;;0.40;0.40;;;8.50;99.90;;;;;;5057719;28;20420;-67
2022/09/29 04:55:26;;;;;;;0.40;0.40;;;8.50;99.90;;;;;;5057885;28;20515;-66
2022/09/29 04:58:15;;;;;;;0.60;0.60;;;8.50;99.90;;;;;;5058039;28;20490;-66
2022/09/29 05:01:08;;;;;;;0.40;0.40;;;8.50;99.90;;;;;;5057002;28;20479;-66
2022/09/29 05:03:56;;;;;;;0.40;0.40;;;8.40;99.90;;;;;;5057190;28;20428;-67
2022/09/29 05:06:45;;;;;;;0.40;0.40;;;8.50;99.90;;;;;;5056865;28;20530;-66
2022/09/29 05:09:33;;;;;;;0.40;0.40;;;8.40;99.90;;;;;;5057073;28;20459;-66
2022/09/29 05:12:22;;;;;;;0.40;0.40;;;8.40;99.90;;;;;;5057140;28;20511;-66
2022/09/29 05:15:11;;;;;;;0.40;0.40;;;8.40;99.90;;;;;;5056238;28;20420;-66
2022/09/29 05:18:02;;;;;;;0.40;0.40;;;8.50;99.90;;;;;;5055921;28;20459;-66
2022/09/29 05:20:50;;;;;;;0.40;0.40;;;8.50;99.90;;;;;;5057058;28;20455;-67
2022/09/29 05:23:58;;;;;;;0.40;0.40;;;8.50;99.90;;;;;;5056175;28;20431;-67
2022/09/29 05:26:46;;;;;;;0.40;0.40;;;8.60;99.90;;;;;;5057107;28;20513;-67
2022/09/29 05:29:36;;;;;;;0.40;0.40;;;8.60;99.90;;;;;;5064151;28;20427;-67
2022/09/29 05:32:24;;;;;;;0.40;0.40;;;8.70;99.90;;;;;;5057426;28;20448;-66
2022/09/29 05:35:12;;;;;;;0.40;0.40;;;8.70;99.90;;;;;;5056685;28;20424;-66
2022/09/29 05:38:00;;;;;;;0.40;0.40;;;8.80;99.90;;;;;;5056860;28;20944;-66
2022/09/29 05:40:48;;;;;;;0.40;0.40;;;8.90;99.90;;;;;;5057429;28;20817;-66
2022/09/29 05:43:37;;;;;;;0.40;0.40;;;8.80;99.90;;;;;;5056891;28;20428;-66
2022/09/29 05:46:26;;;;;;;0.40;0.40;;;8.80;99.90;;;;;;5055122;28;20479;-67
2022/09/29 05:49:14;;;;;;;0.40;0.40;;;9.90;99.90;;;;;;5044691;28;22168;-66
2022/09/29 05:52:02;;;;;;;0.40;0.40;;;9.60;99.90;;;;;;5052818;28;20436;-67
2022/09/29 05:54:51;;;;;;;0.40;0.40;;;9.00;99.90;;;;;;5047199;28;20478;-66
2022/09/29 05:57:39;;;;;;;0.40;0.40;;;9.10;99.90;;;;;;5045758;28;20428;-67
2022/09/29 06:00:27;;;;;;;0.60;0.60;;;8.90;99.90;;;;;;5049355;28;20456;-66
2022/09/29 06:03:17;;;;;;;0.60;0.60;;;9.10;99.90;;;;;;5047407;28;20480;-68
2022/09/29 06:06:11;;;;;;;0.40;0.40;;;9.10;99.90;;;;;;5051587;28;20537;-66
2022/09/29 06:08:59;;;;;;;0.40;0.40;;;9.10;99.90;;;;;;5049180;28;20432;-67
2022/09/29 06:11:48;;;;;;;0.57;0.57;;;9.10;99.90;;;;;;5048658;28;20441;-68
2022/09/29 06:14:36;;;;;;;0.40;0.40;;;9.10;99.90;;;;;;5050237;28;20797;-67
2022/09/29 06:17:24;;;;;;;0.40;0.40;;;9.20;99.90;;;;;;5048721;28;20452;-67
2022/09/29 06:20:13;;;;;;;0.40;0.40;;;9.20;99.90;;;;;;5054277;28;20449;-67
2022/09/29 06:23:02;;;;;;;0.40;0.40;;;9.30;99.90;;;;;;5052697;28;20898;-67
2022/09/29 06:25:55;;;;;;;0.40;0.40;;;9.40;99.90;;;;;;5044057;28;20498;-67
2022/09/29 06:28:43;;;;;;;0.40;0.40;;;9.60;99.90;;;;;;5063557;28;20447;-67
2022/09/29 06:31:32;;;;;;;0.40;0.40;;;9.70;99.90;;;;;;5067680;28;20594;-67
2022/09/29 06:34:20;;;;;;;0.40;0.40;;;9.80;99.90;;;;;;5054450;28;20427;-68
2022/09/29 06:40:15;;;;;;;0.40;0.40;;;9.60;99.90;;;;;;5053105;28;20494;-67
2022/09/29 06:43:03;;;;;;;0.40;0.40;;;10.20;99.90;;;;;;5054146;28;20511;-67
2022/09/29 06:45:51;;;;;;;0.40;0.40;;;10.20;99.90;;;;;;5054422;28;20480;-67
2022/09/29 06:48:39;;;;;;;0.40;0.40;;;10.30;99.90;;;;;;5054739;28;20420;-66
2022/09/29 06:51:28;;;;;;;0.40;0.40;;;10.40;99.90;;;;;;5043626;28;20611;-67
2022/09/29 06:54:31;;;;;;;0.40;0.40;;;10.50;99.90;;;;;;5043617;28;20444;-68
2022/09/29 06:57:19;;;;;;;0.40;0.40;;;10.50;99.90;;;;;;5047879;28;20424;-67
2022/09/29 07:00:09;;;;;;;0.40;0.40;;;10.60;99.90;;;;;;5046736;28;20448;-67
2022/09/29 07:02:57;;;;;;;0.40;0.40;;;10.40;99.90;;;;;;5050896;28;20823;-67
2022/09/29 07:05:45;;;;;;;0.40;0.40;;;10.40;99.90;;;;;;5044673;28;20507;-67
2022/09/29 07:08:54;;;;;;;0.40;0.40;;;10.50;99.90;;;;;;5044789;28;20428;-67
2022/09/29 07:11:45;;;;;;;0.40;0.40;;;10.50;99.90;;;;;;5047374;28;20497;-67
2022/09/29 07:14:33;;;;;;;0.40;0.40;;;10.40;99.90;;;;;;5052003;28;20952;-67
2022/09/29 07:17:22;;;;;;;0.40;0.40;;;10.50;99.90;;;;;;5050167;28;20416;-68
2022/09/29 07:20:10;;;;;;;0.40;0.40;;;10.40;99.90;;;;;;5052184;28;20489;-67
2022/09/29 07:22:59;;;;;;;0.40;0.40;;;10.50;99.90;;;;;;5047640;28;20876;-67
2022/09/29 07:25:47;;;;;;;0.40;0.40;;;10.60;99.90;;;;;;5049484;28;20511;-67
2022/09/29 07:28:40;;;;;;;0.40;0.40;;;10.70;99.90;;;;;;5045011;28;20439;-67
2022/09/29 07:31:29;;;;;;;0.40;0.40;;;10.80;99.90;;;;;;5053117;28;20488;-67
2022/09/29 07:34:29;;;;;;;0.40;0.40;;;10.90;99.90;;;;;;5048378;28;20565;-66
2022/09/29 07:37:17;;;;;;;0.40;0.40;;;10.90;99.90;;;;;;5052136;28;20464;-67
2022/09/29 07:40:06;;;;;;;0.40;0.40;;;11.10;99.90;;;;;;5051550;28;20539;-67
2022/09/29 07:42:55;;;;;;;0.40;0.40;;;11.20;99.90;;;;;;5051290;28;20439;-68
2022/09/29 07:45:48;;;;;;;0.40;0.40;;;11.30;99.90;;;;;;5046822;28;20459;-67
2022/09/29 07:48:37;;;;;;;0.93;0.93;;;11.40;99.90;;;;;;5046027;28;20439;-67
2022/09/29 07:51:26;;;;;;;0.40;0.40;;;11.50;99.90;;;;;;5044873;28;20899;-68
2022/09/29 07:54:14;;;;;;;0.40;0.40;;;11.50;99.90;;;;;;5052418;28;20447;-68
2022/09/29 07:57:02;;;;;;;0.40;0.40;;;11.60;99.90;;;;;;5052557;28;20444;-68
2022/09/29 07:59:51;;;;;;;0.40;0.40;;;11.70;99.90;;;;;;5050919;28;20448;-68
2022/09/29 08:02:42;;;;;;;0.40;0.40;;;11.90;99.90;;;;;;5051204;28;20431;-67
2022/09/29 08:05:32;;;;;;;0.50;0.50;;;11.80;99.90;;;;;;5054530;28;20470;-66
2022/09/29 08:08:20;;;;;;;0.80;0.80;;;12.10;99.90;;;;;;5039701;28;20455;-67
2022/09/29 08:11:10;;;;;;;0.40;0.40;;;12.10;99.90;;;;;;5048614;28;20484;-68
2022/09/29 08:14:10;;;;;;;0.40;0.40;;;12.10;99.90;;;;;;5053389;28;20435;-68
2022/09/29 08:16:59;;;;;;;0.80;0.80;;;12.20;99.90;;;;;;5052745;28;20957;-67
2022/09/29 08:19:49;;;;;;;0.40;0.40;;;12.30;99.90;;;;;;5050605;28;20428;-68
2022/09/29 08:22:37;;;;;;;0.40;0.40;;;12.30;99.90;;;;;;5045906;28;20501;-68
2022/09/29 08:25:25;;;;;;;0.40;0.40;;;12.40;99.90;;;;;;5042368;28;20490;-67
2022/09/29 08:28:13;;;;;;;0.40;0.40;;;12.30;99.90;;;;;;5052028;28;20428;-68
2022/09/29 08:31:15;;;;;;;0.60;0.60;;;12.80;99.90;;;;;;5065398;23;20525;-66
2022/09/29 08:34:04;;;;;;;0.50;0.50;;;12.80;99.90;;;;;;5072082;28;20430;-68
2022/09/29 08:36:54;;;;;;;0.50;0.50;;;13.10;99.90;;;;;;5075164;28;20565;-68
2022/09/29 08:39:42;;;;;;;0.40;0.40;;;13.10;99.90;;;;;;5073279;28;20451;-68
2022/09/29 08:42:43;;;;;;;1.30;1.27;;;13.20;99.90;;;;;;5072547;28;20533;-67
2022/09/29 08:45:41;;;;;;;0.90;0.90;;;13.20;99.90;;;;;;5073512;28;20463;-68
2022/09/29 08:48:45;;;;;;;0.73;0.73;;;13.10;99.90;;;;;;5070384;28;20459;-69
2022/09/29 08:51:48;;;;;;;0.40;0.40;;;13.10;99.90;;;;;;5053384;28;20447;-68
2022/09/29 08:54:41;;;;;;;0.40;0.40;;;13.00;99.90;;;;;;5065157;28;20788;-69
2022/09/29 08:57:35;;;;;;;0.40;0.40;;;12.70;99.90;;;;;;5072737;28;20434;-68
2022/09/29 09:00:36;;;;;;;0.50;0.50;;;12.60;99.90;;;;;;5067981;28;20424;-67
2022/09/29 09:03:52;;;;;;;0.50;0.50;;;12.50;99.90;;;;;;5068767;28;20423;-70
2022/09/29 09:06:50;;;;;;;0.40;0.40;;;12.50;99.90;;;;;;5072979;28;20465;-68
2022/09/29 09:10:02;;;;;;;0.40;0.40;;;12.50;99.90;;;;;;5063044;28;20419;-70
2022/09/29 09:13:05;;;;;;;0.40;0.40;;;12.70;99.90;;;;;;5056827;28;20535;-69
2022/09/29 09:16:13;;;;;;;0.50;0.50;;;12.80;99.90;;;;;;5052326;28;21016;-68
2022/09/29 09:19:30;;;;;;;0.43;0.43;;;12.90;99.90;;;;;;5053206;28;20439;-68
2022/09/29 09:22:22;;;;;;;0.40;0.40;;;12.80;99.90;;;;;;5058620;28;20458;-69
2022/09/29 09:25:21;;;;;;;0.40;0.40;;;12.70;99.90;;;;;;5070172;28;20463;-68
2022/09/29 09:28:16;;;;;;;0.40;0.40;;;12.70;99.90;;;;;;5079755;28;20984;-70
2022/09/29 09:31:09;;;;;;;0.50;0.50;;;12.60;99.90;;;;;;5068687;28;20442;-69
2022/09/29 09:34:02;;;;;;;0.87;0.87;;;12.60;99.90;;;;;;5075787;28;20426;-68
2022/09/29 09:36:58;;;;;;;3.03;1.43;;;12.70;99.90;;;;;;5076751;28;21290;-70
2022/09/29 09:40:00;;;;;;;0.40;0.40;;;12.80;99.90;;;;;;5076275;28;20504;-68
2022/09/29 09:42:54;;;;;;;0.47;0.47;;;13.00;99.90;;;;;;5077167;28;20561;-68
2022/09/29 09:45:48;;;;;;;0.40;0.40;;;13.20;99.90;;;;;;5069648;28;20448;-70
2022/09/29 09:48:41;;;;;;;0.40;0.40;;;13.30;99.90;;;;;;5070988;28;20842;-68
2022/09/29 09:51:40;;;;;;;0.50;0.50;;;13.40;99.90;;;;;;5067769;28;20459;-69
2022/09/29 09:54:33;;;;;;;0.40;0.40;;;13.50;99.90;;;;;;5055704;28;20436;-69
2022/09/29 09:57:48;;;;;;;0.60;0.60;;;13.80;99.90;;;;;;5056985;28;20439;-68
2022/09/29 10:00:42;;;;;;;0.40;0.40;;;14.10;99.90;;;;;;5055353;28;20424;-69
2022/09/29 10:03:31;;;;;;;0.60;0.60;;;14.40;99.90;;;;;;5054430;28;20526;-69
2022/09/29 10:06:19;;;;;;;0.40;0.40;;;14.40;99.90;;;;;;5057263;28;20605;-70
2022/09/29 10:09:13;;;;;;;0.40;0.40;;;14.30;99.90;;;;;;5065005;28;20502;-69
2022/09/29 10:12:01;;;;;;;0.40;0.40;;;14.20;99.90;;;;;;5055045;28;20440;-69
2022/09/29 10:14:53;;;;;;;0.43;0.43;;;14.00;99.90;;;;;;5055087;28;20460;-69
2022/09/29 10:17:46;;;;;;;0.47;0.47;;;13.90;99.90;;;;;;5063657;28;20518;-70
2022/09/29 10:20:37;;;;;;;0.40;0.40;;;13.90;99.90;;;;;;5072712;28;20501;-70
2022/09/29 10:23:31;;;;;;;0.50;0.50;;;14.00;99.90;;;;;;5063852;28;20415;-71
2022/09/29 10:26:24;;;;;;;0.93;0.90;;;14.10;99.90;;;;;;5066603;28;20929;-71
2022/09/29 10:29:28;;;;;;;0.40;0.40;;;14.40;99.90;;;;;;5073197;28;20424;-69
2022/09/29 10:32:23;;;;;;;0.60;0.60;;;15.10;99.90;;;;;;5091521;28;20458;-73
2022/09/29 10:35:22;;;;;;;0.50;0.50;;;15.20;99.90;;;;;;5090945;28;20509;-70
2022/09/29 10:38:17;;;;;;;0.40;0.40;;;15.70;99.90;;;;;;5082942;28;20436;-72
2022/09/29 10:41:07;;;;;;;0.40;0.40;;;16.30;99.90;;;;;;5067247;28;20522;-72
2022/09/29 10:43:55;;;;;;;0.70;0.70;;;16.40;99.90;;;;;;5055265;28;20704;-70
2022/09/29 10:46:50;;;;;;;0.40;0.40;;;16.40;99.90;;;;;;5070650;28;20298;-69
2022/09/29 10:49:39;;;;;;;0.50;0.50;;;16.30;99.90;;;;;;5072033;28;20225;-73
2022/09/29 10:52:29;;;;;;;0.40;0.40;;;15.90;99.90;;;;;;5071856;28;20286;-73
2022/09/29 10:55:19;;;;;;;1.00;1.00;;;15.80;99.90;;;;;;5071884;28;20288;-70
2022/09/29 10:58:25;;;;;;;0.40;0.40;;;15.90;99.90;;;;;;5072376;28;20280;-72
2022/09/29 11:01:44;;;;;;;0.50;0.50;;;16.00;99.90;;;;;;5086822;28;20220;-70
2022/09/29 11:04:35;;;;;;;0.40;0.40;;;16.10;99.90;;;;;;5093618;28;20207;-70
2022/09/29 11:07:23;;;;;;;0.40;0.40;;;16.00;99.90;;;;;;5092232;28;20228;-70
2022/09/29 11:10:27;;;;;;;0.40;0.40;;;15.80;99.90;;;;;;5091401;28;20283;-70
2022/09/29 11:13:36;;;;;;;0.40;0.40;;;15.60;99.90;;;;;;5088334;28;20692;-69
2022/09/29 11:16:29;;;;;;;0.40;0.40;;;15.30;99.90;;;;;;5059524;28;20209;-70
2022/09/29 11:19:18;;;;;;;0.80;0.80;;;15.00;99.90;;;;;;5066008;28;20203;-68
2022/09/29 11:22:25;;;;;;;1.40;1.20;;;15.00;99.90;;;;;;5064532;28;20225;-69
2022/09/29 11:25:39;;;;;;;0.40;0.40;;;15.00;99.90;;;;;;5062386;28;20513;-69
2022/09/29 11:29:10;;;;;;;0.50;0.50;;;14.90;99.90;;;;;;5056202;28;20246;-69
2022/09/29 11:32:16;;;;;;;0.40;0.40;;;15.10;99.90;;;;;;5058756;28;20347;-68
2022/09/29 11:35:21;;;;;;;0.40;0.40;;;15.50;99.90;;;;;;5051717;28;20289;-72
2022/09/29 11:38:43;;;;;;;0.40;0.40;;;15.80;99.90;;;;;;5051454;28;20204;-71
2022/09/29 11:41:55;;;;;;;0.50;0.50;;;16.20;99.90;;;;;;5057229;28;20677;-71
2022/09/29 11:44:58;;;;;;;1.35;1.35;;;16.70;99.90;;;;;;5070158;28;20310;-71
2022/09/29 11:48:04;;;;;;;0.40;0.40;;;16.80;99.90;;;;;;5062747;28;20223;-69
2022/09/29 11:51:01;;;;;;;0.40;0.40;;;16.60;99.90;;;;;;5067169;28;20289;-69
2022/09/29 11:54:03;;;;;;;0.40;0.40;;;16.50;99.90;;;;;;5063290;28;20296;-71
2022/09/29 11:57:01;;;;;;;0.40;0.40;;;16.40;99.90;;;;;;5051541;28;20653;-70
2022/09/29 12:00:02;;;;;;;0.40;0.40;;;16.40;99.90;;;;;;5054009;28;20318;-69
2022/09/29 12:03:11;;;;;;;0.40;0.40;;;16.40;99.90;;;;;;5058497;28;20366;-70
2022/09/29 12:06:25;;;;;;;0.40;0.40;;;16.50;99.90;;;;;;5060631;28;20200;-73
2022/09/29 12:09:32;;;;;;;0.40;0.40;;;16.70;99.90;;;;;;5057774;28;20225;-71
2022/09/29 12:12:29;;;;;;;0.40;0.40;;;17.10;99.90;;;;;;5051099;28;20231;-69
2022/09/29 12:15:30;;;;;;;0.40;0.40;;;17.40;99.90;;;;;;5067244;28;20219;-71
2022/09/29 12:18:21;;;;;;;0.40;0.40;;;17.60;99.90;;;;;;5070701;28;20280;-69
2022/09/29 12:21:13;;;;;;;0.40;0.40;;;17.20;99.90;;;;;;5050241;28;20277;-72
2022/09/29 12:24:10;;;;;;;0.40;0.40;;;17.20;99.90;;;;;;5049249;28;20225;-70
2022/09/29 12:27:00;;;;;;;0.40;0.40;;;17.00;99.90;;;;;;5052097;28;20278;-71
2022/09/29 12:29:54;;;;;;;0.40;0.40;;;16.80;99.90;;;;;;5049726;28;20205;-72
2022/09/29 12:32:48;;;;;;;0.40;0.40;;;16.60;99.90;;;;;;5060645;28;20235;-73
2022/09/29 12:35:43;;;;;;;0.40;0.40;;;16.50;99.90;;;;;;5060915;28;20333;-70
2022/09/29 12:38:35;;;;;;;0.40;0.40;;;16.70;99.90;;;;;;5061151;28;20643;-71
2022/09/29 12:41:29;;;;;;;0.40;0.40;;;16.80;99.90;;;;;;5061182;28;20227;-70
2022/09/29 12:44:27;;;;;;;0.40;0.40;;;17.00;99.90;;;;;;5050221;28;20201;-74
2022/09/29 12:47:23;;;;;;;0.40;0.40;;;17.30;99.90;;;;;;5050935;28;20249;-70
2022/09/29 12:50:17;;;;;;;0.40;0.40;;;17.60;99.90;;;;;;5060414;28;20227;-71
2022/09/29 12:53:16;;;;;;;0.40;0.40;;;17.60;99.90;;;;;;5070089;28;20307;-70
2022/09/29 12:56:11;;;;;;;0.60;0.60;;;17.60;99.90;;;;;;5067340;28;20212;-70
2022/09/29 12:59:05;;;;;;;0.47;0.47;;;17.30;99.90;;;;;;5054212;28;20230;-73
2022/09/29 13:01:56;;;;;;;0.40;0.40;;;17.00;99.90;;;;;;5050616;28;20229;-70
2022/09/29 13:05:06;;;;;;;0.65;0.65;;;16.80;99.90;;;;;;5050613;28;20202;-70
2022/09/29 13:08:10;;;;;;;0.40;0.40;;;16.50;99.90;;;;;;5055283;28;20267;-72
2022/09/29 13:11:21;;;;;;;0.40;0.40;;;16.10;99.90;;;;;;5054462;28;20604;-71
2022/09/29 13:14:59;;;;;;;0.40;0.40;;;16.10;99.90;;;;;;5070221;28;20253;-71
2022/09/29 13:18:06;;;;;;;2.55;2.45;;;16.00;99.90;;;;;;5032322;28;20209;-70
2022/09/29 13:21:06;;;;;;;0.40;0.40;;;16.00;99.90;;;;;;5054148;28;20225;-71
2022/09/29 13:24:20;;;;;;;0.50;0.50;;;16.00;99.90;;;;;;5055079;28;20202;-71
2022/09/29 13:27:25;;;;;;;0.50;0.50;;;16.20;99.90;;;;;;5067930;28;20288;-73
2022/09/29 13:30:17;;;;;;;0.40;0.40;;;16.10;99.90;;;;;;5053698;28;20200;-72
2022/09/29 13:33:10;;;;;;;0.40;0.40;;;16.10;99.90;;;;;;5054687;28;20350;-72
2022/09/29 13:36:00;;;;;;;0.50;0.50;;;16.50;99.90;;;;;;5054454;28;20342;-72
2022/09/29 13:38:55;;;;;;;0.40;0.40;;;17.70;99.90;;;;;;5054637;28;20643;-70
2022/09/29 13:41:44;;;;;;;0.40;0.40;;;19.30;99.90;;;;;;5053239;28;20286;-71
2022/09/29 13:44:32;;;;;;;0.40;0.40;;;20.10;99.90;;;;;;5070300;28;20633;-71
2022/09/29 13:47:33;;;;;;;0.40;0.40;;;20.20;99.70;;;;;;5066881;28;20332;-71
2022/09/29 13:50:41;;;;;;;0.40;0.40;;;19.80;98.60;;;;;;5063782;28;20357;-73
2022/09/29 13:53:36;;;;;;;0.40;0.40;;;19.00;99.50;;;;;;5073559;28;20206;-70
2022/09/29 13:56:24;;;;;;;0.40;0.40;;;18.40;99.90;;;;;;5053438;28;20255;-70
2022/09/29 13:59:15;;;;;;;0.40;0.40;;;18.00;99.90;;;;;;5053829;28;20206;-70
2022/09/29 14:02:20;;;;;;;1.25;1.25;;;17.70;99.90;;;;;;5053724;28;20233;-70
2022/09/29 14:05:37;;;;;;;0.40;0.40;;;17.50;99.90;;;;;;5054767;28;20201;-71
2022/09/29 14:08:28;;;;;;;0.40;0.40;;;17.60;99.90;;;;;;5054764;28;20300;-70
2022/09/29 14:11:26;;;;;;;0.40;0.40;;;17.60;99.90;;;;;;5054528;28;20703;-72
2022/09/29 14:14:19;;;;;;;0.40;0.40;;;17.70;99.90;;;;;;5054538;28;20205;-72
2022/09/29 14:17:13;;;;;;;0.40;0.40;;;17.60;99.90;;;;;;5070973;28;20584;-70
2022/09/29 14:20:06;;;;;;;0.40;0.40;;;17.70;99.90;;;;;;5072675;28;20319;-69
2022/09/29 14:22:58;;;;;;;0.40;0.40;;;17.70;99.90;;;;;;5072746;28;20313;-69
2022/09/29 14:25:53;;;;;;;0.40;0.40;;;17.60;99.90;;;;;;5070698;28;20200;-70
2022/09/29 14:28:43;;;;;;;0.40;0.40;;;17.50;99.90;;;;;;5053623;28;20294;-71
2022/09/29 14:31:31;;;;;;;0.40;0.40;;;17.50;99.90;;;;;;5052416;28;20312;-70
2022/09/29 14:34:23;;;;;;;0.40;0.40;;;17.40;99.90;;;;;;5055292;28;20282;-71
2022/09/29 14:37:18;;;;;;;0.40;0.40;;;17.40;99.90;;;;;;5072595;28;20744;-71
2022/09/29 14:43:16;;;;;;;0.40;0.40;;;17.30;99.90;;;;;;5059512;28;20252;-73
2022/09/29 14:53:44;;;;;;;0.40;0.40;;;17.00;99.90;;;;;;5062955;28;20275;-70
2022/09/29 14:56:47;;;;;;;0.40;0.40;;;16.90;99.90;;;;;;5065159;28;20192;-71
2022/09/29 14:59:53;;;;;;;0.40;0.40;;;16.90;99.90;;;;;;5073030;28;20203;-70
2022/09/29 15:02:46;;;;;;;0.40;0.40;;;16.90;99.90;;;;;;5062566;28;20647;-71
2022/09/29 15:05:42;;;;;;;0.40;0.40;;;16.70;99.90;;;;;;5061710;28;20241;-72
2022/09/29 15:08:33;;;;;;;0.40;0.40;;;16.60;99.90;;;;;;5063648;28;20247;-71
2022/09/29 15:11:30;;;;;;;0.40;0.40;;;16.60;99.90;;;;;;5062046;28;20213;-72
2022/09/29 15:14:25;;;;;;;0.40;0.40;;;16.50;99.90;;;;;;5060811;28;20239;-72
2022/09/29 15:17:20;;;;;;;0.40;0.40;;;16.50;99.90;;;;;;5060756;28;20257;-73
2022/09/29 15:20:17;;;;;;;0.40;0.40;;;16.60;99.90;;;;;;5061662;28;20279;-71
2022/09/29 15:23:43;;;;;;;0.40;0.40;;;16.60;99.90;;;;;;5063243;28;20278;-71
2022/09/29 15:26:33;;;;;;;0.40;0.40;;;16.40;99.90;;;;;;5063590;28;20212;-70